Terminal Aerodrome Forecast
Issued by NWS

Home | Current Version | Previous Version | Text Only | Print | Product List | Glossary On
Versions: 1 2 3 4 5 6 7 8 9 10 11 12 13 14 15
274
FTAK31 PAJN 020259 AAB
TAFAJN
TAF AMD
PAJN 020259Z 0203/0224 VRB06KT 5SM -RA FEW003 SCT008 OVC025
      TEMPO 0203/0207 2SM RA BR SCT003 BKN008 OVC015
     FM020800 11015G25KT 3SM RA BR SCT004 BKN010 OVC020
      WS020/15035KT
     FM021800 24011KT 5SM -RA BR SCT015 OVC025=

USA.gov is the U.S. government's official web portal to all federal, state and local government web resources and services.